sensor_id;sensor_type;location;lat;lon;timestamp;P1;durP1;ratioP1;P2;durP2;ratioP2
3527;SDS011;1778;47.966;7.854;2023-12-20T00:00:51;1.30;;;1.30;;
3527;SDS011;1778;47.966;7.854;2023-12-20T00:01:53;1.67;;;1.67;;
3527;SDS011;1778;47.966;7.854;2023-12-20T00:02:55;1.73;;;1.73;;
3527;SDS011;1778;47.966;7.854;2023-12-20T00:03:56;1.43;;;1.43;;
3527;SDS011;1778;47.966;7.854;2023-12-20T00:04:57;1.63;;;1.63;;
3527;SDS011;1778;47.966;7.854;2023-12-20T00:06:00;1.23;;;1.23;;
3527;SDS011;1778;47.966;7.854;2023-12-20T00:07:02;1.20;;;1.20;;
3527;SDS011;1778;47.966;7.854;2023-12-20T00:08:04;1.20;;;1.20;;
3527;SDS011;1778;47.966;7.854;2023-12-20T00:09:07;1.40;;;1.40;;
3527;SDS011;1778;47.966;7.854;2023-12-20T00:10:09;1.40;;;1.40;;
3527;SDS011;1778;47.966;7.854;2023-12-20T00:11:11;1.20;;;1.20;;
3527;SDS011;1778;47.966;7.854;2023-12-20T00:12:12;1.33;;;1.33;;
3527;SDS011;1778;47.966;7.854;2023-12-20T00:13:14;1.50;;;1.40;;
3527;SDS011;1778;47.966;7.854;2023-12-20T00:14:17;1.30;;;1.30;;
3527;SDS011;1778;47.966;7.854;2023-12-20T00:15:19;1.20;;;1.20;;
3527;SDS011;1778;47.966;7.854;2023-12-20T00:16:22;1.27;;;1.27;;
3527;SDS011;1778;47.966;7.854;2023-12-20T00:17:24;1.80;;;1.53;;
3527;SDS011;1778;47.966;7.854;2023-12-20T00:18:26;1.13;;;1.13;;
3527;SDS011;1778;47.966;7.854;2023-12-20T00:19:27;1.30;;;1.30;;
3527;SDS011;1778;47.966;7.854;2023-12-20T00:20:29;1.27;;;1.27;;
3527;SDS011;1778;47.966;7.854;2023-12-20T00:21:31;1.57;;;1.30;;
3527;SDS011;1778;47.966;7.854;2023-12-20T00:22:33;1.27;;;1.27;;
3527;SDS011;1778;47.966;7.854;2023-12-20T00:23:34;1.37;;;1.37;;
3527;SDS011;1778;47.966;7.854;2023-12-20T00:24:35;1.20;;;1.20;;
3527;SDS011;1778;47.966;7.854;2023-12-20T00:25:37;1.20;;;1.20;;
3527;SDS011;1778;47.966;7.854;2023-12-20T00:26:38;1.40;;;1.40;;
3527;SDS011;1778;47.966;7.854;2023-12-20T00:27:40;1.10;;;1.10;;
3527;SDS011;1778;47.966;7.854;2023-12-20T00:28:41;1.17;;;1.17;;
3527;SDS011;1778;47.966;7.854;2023-12-20T00:29:43;1.20;;;1.20;;
3527;SDS011;1778;47.966;7.854;2023-12-20T00:30:48;1.27;;;1.27;;
3527;SDS011;1778;47.966;7.854;2023-12-20T00:31:50;1.40;;;1.30;;
3527;SDS011;1778;47.966;7.854;2023-12-20T00:32:51;1.40;;;1.40;;
3527;SDS011;1778;47.966;7.854;2023-12-20T00:33:53;1.20;;;1.20;;
3527;SDS011;1778;47.966;7.854;2023-12-20T00:34:55;1.40;;;1.40;;
3527;SDS011;1778;47.966;7.854;2023-12-20T00:35:57;1.20;;;1.20;;
3527;SDS011;1778;47.966;7.854;2023-12-20T00:36:58;1.43;;;1.43;;
3527;SDS011;1778;47.966;7.854;2023-12-20T00:38:00;1.80;;;1.47;;
3527;SDS011;1778;47.966;7.854;2023-12-20T00:39:01;1.27;;;1.27;;
3527;SDS011;1778;47.966;7.854;2023-12-20T00:40:03;1.40;;;1.40;;
3527;SDS011;1778;47.966;7.854;2023-12-20T00:41:05;1.13;;;1.13;;
3527;SDS011;1778;47.966;7.854;2023-12-20T00:42:07;1.20;;;1.20;;
3527;SDS011;1778;47.966;7.854;2023-12-20T00:43:08;1.20;;;1.20;;
3527;SDS011;1778;47.966;7.854;2023-12-20T00:44:10;1.20;;;1.20;;
3527;SDS011;1778;47.966;7.854;2023-12-20T00:45:11;1.10;;;1.10;;
3527;SDS011;1778;47.966;7.854;2023-12-20T00:46:13;1.33;;;1.33;;
3527;SDS011;1778;47.966;7.854;2023-12-20T00:47:14;1.30;;;1.30;;
3527;SDS011;1778;47.966;7.854;2023-12-20T00:48:16;1.30;;;1.30;;
3527;SDS011;1778;47.966;7.854;2023-12-20T00:49:18;1.10;;;1.10;;
3527;SDS011;1778;47.966;7.854;2023-12-20T00:50:19;3.67;;;1.50;;
3527;SDS011;1778;47.966;7.854;2023-12-20T00:51:22;1.37;;;1.37;;
3527;SDS011;1778;47.966;7.854;2023-12-20T00:52:24;1.30;;;1.30;;
3527;SDS011;1778;47.966;7.854;2023-12-20T00:53:26;1.30;;;1.30;;
3527;SDS011;1778;47.966;7.854;2023-12-20T00:54:27;1.30;;;1.30;;
3527;SDS011;1778;47.966;7.854;2023-12-20T00:55:29;1.50;;;1.50;;
3527;SDS011;1778;47.966;7.854;2023-12-20T00:56:30;1.33;;;1.33;;
3527;SDS011;1778;47.966;7.854;2023-12-20T00:57:32;1.30;;;1.30;;
3527;SDS011;1778;47.966;7.854;2023-12-20T00:58:33;1.50;;;1.50;;
3527;SDS011;1778;47.966;7.854;2023-12-20T00:59:35;1.53;;;1.53;;
3527;SDS011;1778;47.966;7.854;2023-12-20T01:00:36;1.30;;;1.30;;
3527;SDS011;1778;47.966;7.854;2023-12-20T01:01:41;1.50;;;1.50;;
3527;SDS011;1778;47.966;7.854;2023-12-20T01:02:43;1.43;;;1.43;;
3527;SDS011;1778;47.966;7.854;2023-12-20T01:03:44;1.83;;;1.73;;
3527;SDS011;1778;47.966;7.854;2023-12-20T01:04:46;1.70;;;1.70;;
3527;SDS011;1778;47.966;7.854;2023-12-20T01:05:48;1.50;;;1.40;;
3527;SDS011;1778;47.966;7.854;2023-12-20T01:06:49;1.30;;;1.30;;
3527;SDS011;1778;47.966;7.854;2023-12-20T01:07:51;1.50;;;1.50;;
3527;SDS011;1778;47.966;7.854;2023-12-20T01:08:53;1.50;;;1.50;;
3527;SDS011;1778;47.966;7.854;2023-12-20T01:09:54;1.67;;;1.67;;
3527;SDS011;1778;47.966;7.854;2023-12-20T01:10:56;1.50;;;1.50;;
3527;SDS011;1778;47.966;7.854;2023-12-20T01:11:57;1.70;;;1.70;;
3527;SDS011;1778;47.966;7.854;2023-12-20T01:12:59;1.63;;;1.63;;
3527;SDS011;1778;47.966;7.854;2023-12-20T01:14:01;1.63;;;1.63;;
3527;SDS011;1778;47.966;7.854;2023-12-20T01:15:03;1.57;;;1.57;;
3527;SDS011;1778;47.966;7.854;2023-12-20T01:16:04;1.77;;;1.77;;
3527;SDS011;1778;47.966;7.854;2023-12-20T01:17:06;1.70;;;1.67;;
3527;SDS011;1778;47.966;7.854;2023-12-20T01:18:08;1.97;;;1.97;;
3527;SDS011;1778;47.966;7.854;2023-12-20T01:19:09;1.70;;;1.70;;
3527;SDS011;1778;47.966;7.854;2023-12-20T01:20:11;1.87;;;1.87;;
3527;SDS011;1778;47.966;7.854;2023-12-20T01:21:13;1.90;;;1.90;;
3527;SDS011;1778;47.966;7.854;2023-12-20T01:22:14;1.57;;;1.57;;
3527;SDS011;1778;47.966;7.854;2023-12-20T01:23:16;1.93;;;1.93;;
3527;SDS011;1778;47.966;7.854;2023-12-20T01:24:17;1.70;;;1.70;;
3527;SDS011;1778;47.966;7.854;2023-12-20T01:25:19;1.63;;;1.63;;
3527;SDS011;1778;47.966;7.854;2023-12-20T01:26:21;1.90;;;1.90;;
3527;SDS011;1778;47.966;7.854;2023-12-20T01:27:23;1.70;;;1.70;;
3527;SDS011;1778;47.966;7.854;2023-12-20T01:28:25;4.00;;;2.17;;
3527;SDS011;1778;47.966;7.854;2023-12-20T01:29:27;1.80;;;1.80;;
3527;SDS011;1778;47.966;7.854;2023-12-20T01:30:29;1.93;;;1.93;;
3527;SDS011;1778;47.966;7.854;2023-12-20T01:31:30;4.20;;;1.90;;
3527;SDS011;1778;47.966;7.854;2023-12-20T01:32:32;2.13;;;2.03;;
3527;SDS011;1778;47.966;7.854;2023-12-20T01:33:33;1.80;;;1.80;;
3527;SDS011;1778;47.966;7.854;2023-12-20T01:34:35;2.13;;;2.13;;
3527;SDS011;1778;47.966;7.854;2023-12-20T01:35:37;2.00;;;2.00;;
3527;SDS011;1778;47.966;7.854;2023-12-20T01:36:39;2.27;;;2.20;;
3527;SDS011;1778;47.966;7.854;2023-12-20T01:37:40;2.17;;;2.17;;
3527;SDS011;1778;47.966;7.854;2023-12-20T01:38:43;2.30;;;2.30;;
3527;SDS011;1778;47.966;7.854;2023-12-20T01:39:44;1.80;;;1.80;;
3527;SDS011;1778;47.966;7.854;2023-12-20T01:40:46;2.30;;;2.30;;
3527;SDS011;1778;47.966;7.854;2023-12-20T01:41:47;2.07;;;2.07;;
3527;SDS011;1778;47.966;7.854;2023-12-20T01:43:02;2.00;;;2.00;;
3527;SDS011;1778;47.966;7.854;2023-12-20T01:44:13;2.03;;;2.03;;
3527;SDS011;1778;47.966;7.854;2023-12-20T01:45:15;1.93;;;1.93;;
3527;SDS011;1778;47.966;7.854;2023-12-20T01:46:16;2.17;;;2.17;;
3527;SDS011;1778;47.966;7.854;2023-12-20T01:47:19;1.93;;;1.93;;
3527;SDS011;1778;47.966;7.854;2023-12-20T01:48:22;2.07;;;2.07;;
3527;SDS011;1778;47.966;7.854;2023-12-20T01:49:25;2.47;;;2.47;;
3527;SDS011;1778;47.966;7.854;2023-12-20T01:50:30;2.27;;;2.27;;
3527;SDS011;1778;47.966;7.854;2023-12-20T01:51:33;2.00;;;2.00;;
3527;SDS011;1778;47.966;7.854;2023-12-20T01:52:36;2.20;;;2.20;;
3527;SDS011;1778;47.966;7.854;2023-12-20T01:53:38;2.40;;;2.40;;
3527;SDS011;1778;47.966;7.854;2023-12-20T01:54:41;2.17;;;2.17;;
3527;SDS011;1778;47.966;7.854;2023-12-20T01:55:43;2.03;;;2.03;;
3527;SDS011;1778;47.966;7.854;2023-12-20T01:56:45;2.20;;;2.20;;
3527;SDS011;1778;47.966;7.854;2023-12-20T01:57:47;2.10;;;2.10;;
3527;SDS011;1778;47.966;7.854;2023-12-20T01:58:50;2.17;;;2.17;;
3527;SDS011;1778;47.966;7.854;2023-12-20T01:59:51;2.27;;;2.27;;
3527;SDS011;1778;47.966;7.854;2023-12-20T02:00:53;2.03;;;2.03;;
3527;SDS011;1778;47.966;7.854;2023-12-20T02:01:55;2.40;;;2.40;;
3527;SDS011;1778;47.966;7.854;2023-12-20T02:02:58;2.17;;;2.17;;
3527;SDS011;1778;47.966;7.854;2023-12-20T02:04:03;2.40;;;2.30;;
3527;SDS011;1778;47.966;7.854;2023-12-20T02:05:06;2.07;;;2.07;;
3527;SDS011;1778;47.966;7.854;2023-12-20T02:06:09;2.40;;;2.40;;
3527;SDS011;1778;47.966;7.854;2023-12-20T02:07:10;2.20;;;2.20;;
3527;SDS011;1778;47.966;7.854;2023-12-20T02:08:13;2.33;;;2.33;;
3527;SDS011;1778;47.966;7.854;2023-12-20T02:09:14;2.43;;;2.43;;
3527;SDS011;1778;47.966;7.854;2023-12-20T02:10:16;2.30;;;2.30;;
3527;SDS011;1778;47.966;7.854;2023-12-20T02:11:19;2.47;;;2.47;;
3527;SDS011;1778;47.966;7.854;2023-12-20T02:12:21;2.77;;;2.77;;
3527;SDS011;1778;47.966;7.854;2023-12-20T02:13:22;2.40;;;2.40;;
3527;SDS011;1778;47.966;7.854;2023-12-20T02:14:24;2.40;;;2.40;;
3527;SDS011;1778;47.966;7.854;2023-12-20T02:15:26;2.30;;;2.30;;
3527;SDS011;1778;47.966;7.854;2023-12-20T02:16:27;2.50;;;2.50;;
3527;SDS011;1778;47.966;7.854;2023-12-20T02:17:29;2.43;;;2.43;;
3527;SDS011;1778;47.966;7.854;2023-12-20T02:18:31;2.70;;;2.70;;
3527;SDS011;1778;47.966;7.854;2023-12-20T02:19:33;2.70;;;2.70;;
3527;SDS011;1778;47.966;7.854;2023-12-20T02:20:35;2.20;;;2.20;;
3527;SDS011;1778;47.966;7.854;2023-12-20T02:21:36;2.60;;;2.60;;
3527;SDS011;1778;47.966;7.854;2023-12-20T02:22:38;2.20;;;2.20;;
3527;SDS011;1778;47.966;7.854;2023-12-20T02:23:39;2.50;;;2.50;;
3527;SDS011;1778;47.966;7.854;2023-12-20T02:24:41;2.77;;;2.77;;
3527;SDS011;1778;47.966;7.854;2023-12-20T02:25:42;2.70;;;2.70;;
3527;SDS011;1778;47.966;7.854;2023-12-20T02:26:44;2.50;;;2.50;;
3527;SDS011;1778;47.966;7.854;2023-12-20T02:27:47;2.43;;;2.43;;
3527;SDS011;1778;47.966;7.854;2023-12-20T02:28:50;2.50;;;2.50;;
3527;SDS011;1778;47.966;7.854;2023-12-20T02:29:51;2.40;;;2.40;;
3527;SDS011;1778;47.966;7.854;2023-12-20T02:30:53;2.60;;;2.60;;
3527;SDS011;1778;47.966;7.854;2023-12-20T02:31:54;2.60;;;2.60;;
3527;SDS011;1778;47.966;7.854;2023-12-20T02:32:56;2.50;;;2.50;;
3527;SDS011;1778;47.966;7.854;2023-12-20T02:33:58;2.57;;;2.57;;
3527;SDS011;1778;47.966;7.854;2023-12-20T02:35:00;2.60;;;2.60;;
3527;SDS011;1778;47.966;7.854;2023-12-20T02:36:02;2.47;;;2.47;;
3527;SDS011;1778;47.966;7.854;2023-12-20T02:37:03;2.77;;;2.77;;
3527;SDS011;1778;47.966;7.854;2023-12-20T02:38:05;2.60;;;2.60;;
3527;SDS011;1778;47.966;7.854;2023-12-20T02:39:12;2.47;;;2.47;;
3527;SDS011;1778;47.966;7.854;2023-12-20T02:40:17;2.40;;;2.40;;
3527;SDS011;1778;47.966;7.854;2023-12-20T02:41:18;2.50;;;2.50;;
3527;SDS011;1778;47.966;7.854;2023-12-20T02:42:20;2.57;;;2.57;;
3527;SDS011;1778;47.966;7.854;2023-12-20T02:43:21;2.53;;;2.53;;
3527;SDS011;1778;47.966;7.854;2023-12-20T02:44:23;2.40;;;2.40;;
3527;SDS011;1778;47.966;7.854;2023-12-20T02:45:25;2.30;;;2.30;;
3527;SDS011;1778;47.966;7.854;2023-12-20T02:46:27;2.30;;;2.30;;
3527;SDS011;1778;47.966;7.854;2023-12-20T02:47:29;2.80;;;2.80;;
3527;SDS011;1778;47.966;7.854;2023-12-20T02:48:31;2.50;;;2.50;;
3527;SDS011;1778;47.966;7.854;2023-12-20T02:49:32;2.67;;;2.67;;
3527;SDS011;1778;47.966;7.854;2023-12-20T02:50:34;2.10;;;2.10;;
3527;SDS011;1778;47.966;7.854;2023-12-20T02:51:35;3.90;;;2.60;;
3527;SDS011;1778;47.966;7.854;2023-12-20T02:52:39;2.53;;;2.43;;
3527;SDS011;1778;47.966;7.854;2023-12-20T02:53:41;2.10;;;2.10;;
3527;SDS011;1778;47.966;7.854;2023-12-20T02:54:42;2.53;;;2.53;;
3527;SDS011;1778;47.966;7.854;2023-12-20T02:55:44;2.43;;;2.43;;
3527;SDS011;1778;47.966;7.854;2023-12-20T02:56:45;2.47;;;2.47;;
3527;SDS011;1778;47.966;7.854;2023-12-20T02:57:47;2.20;;;2.20;;
3527;SDS011;1778;47.966;7.854;2023-12-20T02:58:49;2.43;;;2.43;;
3527;SDS011;1778;47.966;7.854;2023-12-20T02:59:50;2.57;;;2.57;;
3527;SDS011;1778;47.966;7.854;2023-12-20T03:00:52;2.20;;;2.20;;
3527;SDS011;1778;47.966;7.854;2023-12-20T03:01:53;2.57;;;2.57;;
3527;SDS011;1778;47.966;7.854;2023-12-20T03:02:55;2.33;;;2.33;;
3527;SDS011;1778;47.966;7.854;2023-12-20T03:03:56;2.57;;;2.57;;
3527;SDS011;1778;47.966;7.854;2023-12-20T03:04:58;2.80;;;2.80;;
3527;SDS011;1778;47.966;7.854;2023-12-20T03:06:02;6.73;;;3.10;;
3527;SDS011;1778;47.966;7.854;2023-12-20T03:07:04;2.67;;;2.67;;
3527;SDS011;1778;47.966;7.854;2023-12-20T03:08:05;2.40;;;2.40;;
3527;SDS011;1778;47.966;7.854;2023-12-20T03:09:07;2.50;;;2.50;;
3527;SDS011;1778;47.966;7.854;2023-12-20T03:10:09;2.63;;;2.63;;
3527;SDS011;1778;47.966;7.854;2023-12-20T03:11:21;2.83;;;2.73;;
3527;SDS011;1778;47.966;7.854;2023-12-20T03:12:22;2.40;;;2.40;;
3527;SDS011;1778;47.966;7.854;2023-12-20T03:13:23;2.53;;;2.53;;
3527;SDS011;1778;47.966;7.854;2023-12-20T03:14:25;2.77;;;2.77;;
3527;SDS011;1778;47.966;7.854;2023-12-20T03:15:26;2.40;;;2.40;;
3527;SDS011;1778;47.966;7.854;2023-12-20T03:16:27;2.60;;;2.60;;
3527;SDS011;1778;47.966;7.854;2023-12-20T03:17:29;2.90;;;2.70;;
3527;SDS011;1778;47.966;7.854;2023-12-20T03:18:31;2.40;;;2.40;;
3527;SDS011;1778;47.966;7.854;2023-12-20T03:19:32;2.70;;;2.70;;
3527;SDS011;1778;47.966;7.854;2023-12-20T03:20:34;2.57;;;2.57;;
3527;SDS011;1778;47.966;7.854;2023-12-20T03:21:35;2.50;;;2.50;;
3527;SDS011;1778;47.966;7.854;2023-12-20T03:22:37;2.77;;;2.77;;
3527;SDS011;1778;47.966;7.854;2023-12-20T03:23:38;2.63;;;2.63;;
3527;SDS011;1778;47.966;7.854;2023-12-20T03:24:41;2.40;;;2.40;;
3527;SDS011;1778;47.966;7.854;2023-12-20T03:25:42;2.57;;;2.57;;
3527;SDS011;1778;47.966;7.854;2023-12-20T03:26:43;2.60;;;2.60;;
3527;SDS011;1778;47.966;7.854;2023-12-20T03:27:45;3.60;;;2.50;;
3527;SDS011;1778;47.966;7.854;2023-12-20T03:28:47;2.43;;;2.43;;
3527;SDS011;1778;47.966;7.854;2023-12-20T03:29:49;2.50;;;2.50;;
3527;SDS011;1778;47.966;7.854;2023-12-20T03:30:51;2.60;;;2.60;;
3527;SDS011;1778;47.966;7.854;2023-12-20T03:31:52;2.93;;;2.93;;
3527;SDS011;1778;47.966;7.854;2023-12-20T03:32:54;2.63;;;2.63;;
3527;SDS011;1778;47.966;7.854;2023-12-20T03:33:55;2.40;;;2.40;;
3527;SDS011;1778;47.966;7.854;2023-12-20T03:34:57;2.50;;;2.50;;
3527;SDS011;1778;47.966;7.854;2023-12-20T03:35:59;2.50;;;2.50;;
3527;SDS011;1778;47.966;7.854;2023-12-20T03:37:00;2.50;;;2.50;;
3527;SDS011;1778;47.966;7.854;2023-12-20T03:38:02;2.57;;;2.57;;
3527;SDS011;1778;47.966;7.854;2023-12-20T03:39:04;2.70;;;2.70;;
3527;SDS011;1778;47.966;7.854;2023-12-20T03:40:06;2.47;;;2.43;;
3527;SDS011;1778;47.966;7.854;2023-12-20T03:41:08;3.13;;;3.03;;
3527;SDS011;1778;47.966;7.854;2023-12-20T03:42:09;2.73;;;2.73;;
3527;SDS011;1778;47.966;7.854;2023-12-20T03:43:11;2.53;;;2.53;;
3527;SDS011;1778;47.966;7.854;2023-12-20T03:44:12;2.83;;;2.83;;
3527;SDS011;1778;47.966;7.854;2023-12-20T03:45:14;2.67;;;2.67;;
3527;SDS011;1778;47.966;7.854;2023-12-20T03:46:15;2.83;;;2.83;;
3527;SDS011;1778;47.966;7.854;2023-12-20T03:47:17;2.50;;;2.50;;
3527;SDS011;1778;47.966;7.854;2023-12-20T03:48:19;2.70;;;2.70;;
3527;SDS011;1778;47.966;7.854;2023-12-20T03:49:21;2.53;;;2.53;;
3527;SDS011;1778;47.966;7.854;2023-12-20T03:50:23;2.67;;;2.67;;
3527;SDS011;1778;47.966;7.854;2023-12-20T03:51:24;2.60;;;2.60;;
3527;SDS011;1778;47.966;7.854;2023-12-20T03:52:26;2.60;;;2.60;;
3527;SDS011;1778;47.966;7.854;2023-12-20T03:53:28;2.30;;;2.30;;
3527;SDS011;1778;47.966;7.854;2023-12-20T03:54:29;2.50;;;2.50;;
3527;SDS011;1778;47.966;7.854;2023-12-20T03:55:30;2.80;;;2.80;;
3527;SDS011;1778;47.966;7.854;2023-12-20T03:56:32;2.80;;;2.80;;
3527;SDS011;1778;47.966;7.854;2023-12-20T03:57:33;2.50;;;2.50;;
3527;SDS011;1778;47.966;7.854;2023-12-20T03:58:35;2.53;;;2.53;;
3527;SDS011;1778;47.966;7.854;2023-12-20T03:59:37;2.60;;;2.60;;
3527;SDS011;1778;47.966;7.854;2023-12-20T04:00:38;2.50;;;2.50;;
3527;SDS011;1778;47.966;7.854;2023-12-20T04:01:43;2.50;;;2.50;;
3527;SDS011;1778;47.966;7.854;2023-12-20T04:02:46;2.40;;;2.40;;
3527;SDS011;1778;47.966;7.854;2023-12-20T04:03:48;2.67;;;2.63;;
3527;SDS011;1778;47.966;7.854;2023-12-20T04:04:49;2.90;;;2.90;;
3527;SDS011;1778;47.966;7.854;2023-12-20T04:05:51;2.80;;;2.80;;
3527;SDS011;1778;47.966;7.854;2023-12-20T04:06:52;2.90;;;2.90;;
3527;SDS011;1778;47.966;7.854;2023-12-20T04:07:53;2.70;;;2.70;;
3527;SDS011;1778;47.966;7.854;2023-12-20T04:08:55;2.40;;;2.40;;
3527;SDS011;1778;47.966;7.854;2023-12-20T04:09:57;2.73;;;2.73;;
3527;SDS011;1778;47.966;7.854;2023-12-20T04:10:58;3.00;;;3.00;;
3527;SDS011;1778;47.966;7.854;2023-12-20T04:12:00;3.00;;;3.00;;
3527;SDS011;1778;47.966;7.854;2023-12-20T04:13:01;2.90;;;2.90;;
3527;SDS011;1778;47.966;7.854;2023-12-20T04:14:03;2.90;;;2.90;;
3527;SDS011;1778;47.966;7.854;2023-12-20T04:15:08;2.90;;;2.90;;
3527;SDS011;1778;47.966;7.854;2023-12-20T04:16:11;2.73;;;2.73;;
3527;SDS011;1778;47.966;7.854;2023-12-20T04:17:12;2.77;;;2.77;;
3527;SDS011;1778;47.966;7.854;2023-12-20T04:18:16;2.90;;;2.90;;
3527;SDS011;1778;47.966;7.854;2023-12-20T04:19:18;2.63;;;2.63;;
3527;SDS011;1778;47.966;7.854;2023-12-20T04:20:19;3.00;;;3.00;;
3527;SDS011;1778;47.966;7.854;2023-12-20T04:21:21;2.90;;;2.90;;
3527;SDS011;1778;47.966;7.854;2023-12-20T04:22:23;2.50;;;2.50;;
3527;SDS011;1778;47.966;7.854;2023-12-20T04:23:28;2.80;;;2.80;;
3527;SDS011;1778;47.966;7.854;2023-12-20T04:24:29;2.77;;;2.77;;
3527;SDS011;1778;47.966;7.854;2023-12-20T04:25:32;2.80;;;2.80;;
3527;SDS011;1778;47.966;7.854;2023-12-20T04:26:34;2.70;;;2.70;;
3527;SDS011;1778;47.966;7.854;2023-12-20T04:27:38;2.93;;;2.83;;
3527;SDS011;1778;47.966;7.854;2023-12-20T04:28:39;3.13;;;3.13;;
3527;SDS011;1778;47.966;7.854;2023-12-20T04:29:41;2.77;;;2.77;;
3527;SDS011;1778;47.966;7.854;2023-12-20T04:30:42;2.67;;;2.67;;
3527;SDS011;1778;47.966;7.854;2023-12-20T04:31:44;2.80;;;2.80;;
3527;SDS011;1778;47.966;7.854;2023-12-20T04:32:46;3.13;;;3.13;;
3527;SDS011;1778;47.966;7.854;2023-12-20T04:33:49;2.63;;;2.63;;
3527;SDS011;1778;47.966;7.854;2023-12-20T04:34:51;2.30;;;2.30;;
3527;SDS011;1778;47.966;7.854;2023-12-20T04:35:52;3.17;;;3.07;;
3527;SDS011;1778;47.966;7.854;2023-12-20T04:36:53;2.70;;;2.70;;
3527;SDS011;1778;47.966;7.854;2023-12-20T04:37:55;2.83;;;2.83;;
3527;SDS011;1778;47.966;7.854;2023-12-20T04:38:56;2.90;;;2.90;;
3527;SDS011;1778;47.966;7.854;2023-12-20T04:39:58;3.07;;;3.07;;
3527;SDS011;1778;47.966;7.854;2023-12-20T04:41:00;2.90;;;2.90;;
3527;SDS011;1778;47.966;7.854;2023-12-20T04:42:01;2.90;;;2.90;;
3527;SDS011;1778;47.966;7.854;2023-12-20T04:43:03;2.70;;;2.70;;
3527;SDS011;1778;47.966;7.854;2023-12-20T04:44:05;3.13;;;3.03;;
3527;SDS011;1778;47.966;7.854;2023-12-20T04:45:07;3.30;;;3.30;;
3527;SDS011;1778;47.966;7.854;2023-12-20T04:46:08;2.70;;;2.70;;
3527;SDS011;1778;47.966;7.854;2023-12-20T04:47:10;2.80;;;2.80;;
3527;SDS011;1778;47.966;7.854;2023-12-20T04:48:11;3.00;;;3.00;;
3527;SDS011;1778;47.966;7.854;2023-12-20T04:49:13;2.73;;;2.73;;
3527;SDS011;1778;47.966;7.854;2023-12-20T04:50:14;2.70;;;2.70;;
3527;SDS011;1778;47.966;7.854;2023-12-20T04:51:16;2.60;;;2.60;;
3527;SDS011;1778;47.966;7.854;2023-12-20T04:52:18;2.70;;;2.70;;
3527;SDS011;1778;47.966;7.854;2023-12-20T04:53:20;3.20;;;3.10;;
3527;SDS011;1778;47.966;7.854;2023-12-20T04:54:21;3.00;;;3.00;;
3527;SDS011;1778;47.966;7.854;2023-12-20T04:55:23;2.93;;;2.93;;
3527;SDS011;1778;47.966;7.854;2023-12-20T04:56:24;2.77;;;2.77;;
3527;SDS011;1778;47.966;7.854;2023-12-20T04:57:26;2.50;;;2.50;;
3527;SDS011;1778;47.966;7.854;2023-12-20T04:58:27;2.83;;;2.83;;
3527;SDS011;1778;47.966;7.854;2023-12-20T04:59:29;2.80;;;2.80;;
3527;SDS011;1778;47.966;7.854;2023-12-20T05:00:31;2.83;;;2.83;;
3527;SDS011;1778;47.966;7.854;2023-12-20T05:01:32;2.90;;;2.90;;
3527;SDS011;1778;47.966;7.854;2023-12-20T05:02:35;3.07;;;3.07;;
3527;SDS011;1778;47.966;7.854;2023-12-20T05:03:37;2.83;;;2.83;;
3527;SDS011;1778;47.966;7.854;2023-12-20T05:04:38;2.83;;;2.83;;
3527;SDS011;1778;47.966;7.854;2023-12-20T05:05:40;3.57;;;3.57;;
3527;SDS011;1778;47.966;7.854;2023-12-20T05:06:41;2.80;;;2.80;;
3527;SDS011;1778;47.966;7.854;2023-12-20T05:07:43;3.10;;;3.10;;
3527;SDS011;1778;47.966;7.854;2023-12-20T05:08:45;3.00;;;3.00;;
3527;SDS011;1778;47.966;7.854;2023-12-20T05:09:46;3.20;;;3.20;;
3527;SDS011;1778;47.966;7.854;2023-12-20T05:10:48;3.07;;;3.07;;
3527;SDS011;1778;47.966;7.854;2023-12-20T05:11:49;3.10;;;3.10;;
3527;SDS011;1778;47.966;7.854;2023-12-20T05:12:51;3.23;;;3.23;;
3527;SDS011;1778;47.966;7.854;2023-12-20T05:13:52;2.90;;;2.90;;
3527;SDS011;1778;47.966;7.854;2023-12-20T05:14:53;3.17;;;3.17;;
3527;SDS011;1778;47.966;7.854;2023-12-20T05:15:55;3.50;;;3.50;;
3527;SDS011;1778;47.966;7.854;2023-12-20T05:16:56;3.33;;;3.33;;
3527;SDS011;1778;47.966;7.854;2023-12-20T05:17:58;3.57;;;3.50;;
3527;SDS011;1778;47.966;7.854;2023-12-20T05:18:59;3.20;;;3.20;;
3527;SDS011;1778;47.966;7.854;2023-12-20T05:20:03;3.83;;;3.73;;
3527;SDS011;1778;47.966;7.854;2023-12-20T05:21:04;3.67;;;3.67;;
3527;SDS011;1778;47.966;7.854;2023-12-20T05:22:06;3.40;;;3.40;;
3527;SDS011;1778;47.966;7.854;2023-12-20T05:23:08;3.57;;;3.57;;
3527;SDS011;1778;47.966;7.854;2023-12-20T05:24:09;3.37;;;3.37;;
3527;SDS011;1778;47.966;7.854;2023-12-20T05:25:11;3.20;;;3.20;;
3527;SDS011;1778;47.966;7.854;2023-12-20T05:26:12;3.50;;;3.50;;
3527;SDS011;1778;47.966;7.854;2023-12-20T05:27:14;3.50;;;3.50;;
3527;SDS011;1778;47.966;7.854;2023-12-20T05:28:16;3.30;;;3.30;;
3527;SDS011;1778;47.966;7.854;2023-12-20T05:29:18;3.53;;;3.53;;
3527;SDS011;1778;47.966;7.854;2023-12-20T05:30:19;3.30;;;3.30;;
3527;SDS011;1778;47.966;7.854;2023-12-20T05:31:20;3.60;;;3.60;;
3527;SDS011;1778;47.966;7.854;2023-12-20T05:32:22;3.30;;;3.30;;
3527;SDS011;1778;47.966;7.854;2023-12-20T05:33:24;3.70;;;3.70;;
3527;SDS011;1778;47.966;7.854;2023-12-20T05:34:26;3.53;;;3.53;;
3527;SDS011;1778;47.966;7.854;2023-12-20T05:35:28;3.30;;;3.30;;
3527;SDS011;1778;47.966;7.854;2023-12-20T05:36:29;3.30;;;3.30;;
3527;SDS011;1778;47.966;7.854;2023-12-20T05:37:31;3.63;;;3.63;;
3527;SDS011;1778;47.966;7.854;2023-12-20T05:38:32;3.80;;;3.80;;
3527;SDS011;1778;47.966;7.854;2023-12-20T05:39:33;3.60;;;3.60;;
3527;SDS011;1778;47.966;7.854;2023-12-20T05:40:35;3.77;;;3.77;;
3527;SDS011;1778;47.966;7.854;2023-12-20T05:41:36;3.60;;;3.60;;
3527;SDS011;1778;47.966;7.854;2023-12-20T05:42:37;3.40;;;3.40;;
3527;SDS011;1778;47.966;7.854;2023-12-20T05:43:39;3.97;;;3.97;;
3527;SDS011;1778;47.966;7.854;2023-12-20T05:44:41;4.10;;;4.10;;
3527;SDS011;1778;47.966;7.854;2023-12-20T05:45:42;3.30;;;3.30;;
3527;SDS011;1778;47.966;7.854;2023-12-20T05:46:43;3.33;;;3.33;;
3527;SDS011;1778;47.966;7.854;2023-12-20T05:47:45;3.63;;;3.63;;
3527;SDS011;1778;47.966;7.854;2023-12-20T05:48:47;3.67;;;3.67;;
3527;SDS011;1778;47.966;7.854;2023-12-20T05:49:49;3.50;;;3.50;;
3527;SDS011;1778;47.966;7.854;2023-12-20T05:50:51;3.57;;;3.57;;
3527;SDS011;1778;47.966;7.854;2023-12-20T05:51:52;3.50;;;3.50;;
3527;SDS011;1778;47.966;7.854;2023-12-20T05:52:53;3.40;;;3.40;;
3527;SDS011;1778;47.966;7.854;2023-12-20T05:53:55;3.70;;;3.70;;
3527;SDS011;1778;47.966;7.854;2023-12-20T05:54:57;3.50;;;3.50;;
3527;SDS011;1778;47.966;7.854;2023-12-20T05:56:02;3.60;;;3.50;;
3527;SDS011;1778;47.966;7.854;2023-12-20T05:57:04;3.60;;;3.60;;
3527;SDS011;1778;47.966;7.854;2023-12-20T05:58:06;3.80;;;3.80;;
3527;SDS011;1778;47.966;7.854;2023-12-20T05:59:07;3.87;;;3.77;;
3527;SDS011;1778;47.966;7.854;2023-12-20T06:00:09;4.00;;;3.90;;
3527;SDS011;1778;47.966;7.854;2023-12-20T06:01:14;4.10;;;4.00;;
3527;SDS011;1778;47.966;7.854;2023-12-20T06:02:17;4.53;;;4.33;;
3527;SDS011;1778;47.966;7.854;2023-12-20T06:03:19;4.30;;;4.20;;
3527;SDS011;1778;47.966;7.854;2023-12-20T06:04:21;3.50;;;3.50;;
3527;SDS011;1778;47.966;7.854;2023-12-20T06:05:24;3.60;;;3.50;;
3527;SDS011;1778;47.966;7.854;2023-12-20T06:06:25;3.70;;;3.70;;
3527;SDS011;1778;47.966;7.854;2023-12-20T06:07:27;3.93;;;3.90;;
3527;SDS011;1778;47.966;7.854;2023-12-20T06:08:28;4.27;;;3.83;;
3527;SDS011;1778;47.966;7.854;2023-12-20T06:09:30;3.90;;;3.90;;
3527;SDS011;1778;47.966;7.854;2023-12-20T06:10:32;3.83;;;3.83;;
3527;SDS011;1778;47.966;7.854;2023-12-20T06:11:33;3.40;;;3.40;;
3527;SDS011;1778;47.966;7.854;2023-12-20T06:12:35;3.93;;;3.83;;
3527;SDS011;1778;47.966;7.854;2023-12-20T06:13:37;3.63;;;3.60;;
3527;SDS011;1778;47.966;7.854;2023-12-20T06:14:38;3.63;;;3.63;;
3527;SDS011;1778;47.966;7.854;2023-12-20T06:15:40;3.70;;;3.60;;
3527;SDS011;1778;47.966;7.854;2023-12-20T06:16:41;3.70;;;3.70;;
3527;SDS011;1778;47.966;7.854;2023-12-20T06:17:43;4.20;;;4.20;;
3527;SDS011;1778;47.966;7.854;2023-12-20T06:18:45;4.17;;;4.07;;
3527;SDS011;1778;47.966;7.854;2023-12-20T06:19:48;3.87;;;3.87;;
3527;SDS011;1778;47.966;7.854;2023-12-20T06:20:50;3.80;;;3.80;;
3527;SDS011;1778;47.966;7.854;2023-12-20T06:21:51;4.30;;;4.23;;
3527;SDS011;1778;47.966;7.854;2023-12-20T06:22:53;4.10;;;4.00;;
3527;SDS011;1778;47.966;7.854;2023-12-20T06:23:54;3.40;;;3.40;;
3527;SDS011;1778;47.966;7.854;2023-12-20T06:24:56;3.73;;;3.73;;